This is the latest recevied weather packets stored in our database for station/object EA5FOG-11. If no packets are shown the sender has not sent any weather packets the latest 10 day(s).
| Time | Temp. | Humidity | Pressure | Rain* | Wind** | Luminosity | Snow |
|---|---|---|---|---|---|---|---|
| 1777323465 | 16.67° C | 53% | 957.9 hPa | - | - | - | - |
| 1777322564 | 16.67° C | 53% | 957.8 hPa | - | - | - | - |
| 1777321663 | 16.67° C | 52% | 957.8 hPa | - | - | - | - |
| 1777320762 | 16.67° C | 52% | 957.7 hPa | - | - | - | - |
| 1777319862 | 17.22° C | 51% | 957.6 hPa | - | - | - | - |
| 1777318961 | 17.22° C | 50% | 957.5 hPa | - | - | - | - |
| 1777317176 | 17.78° C | 48% | 957.3 hPa | - | - | - | - |
| 1777316279 | 18.33° C | 47% | 957.1 hPa | - | - | - | - |
| 1777315375 | 19.44° C | 46% | 957.3 hPa | - | - | - | - |
| 1777314474 | 20° C | 44% | 957.2 hPa | - | - | - | - |
| 1777313573 | 21.11° C | 43% | 957 hPa | - | - | - | - |
| 1777311775 | 26.11° C | 38% | 956.8 hPa | - | - | - | - |
| 1777310872 | 28.89° C | 35% | 956.7 hPa | - | - | - | - |
| 1777309970 | 30° C | 34% | 956.8 hPa | - | - | - | - |
| 1777309069 | 31.67° C | 32% | 956.7 hPa | - | - | - | - |
| 1777308169 | 32.78° C | 32% | 956.7 hPa | - | - | - | - |
| 1777307268 | 32.78° C | 31% | 956.7 hPa | - | - | - | - |
| 1777306369 | 32.78° C | 31% | 956.7 hPa | - | - | - | - |
| 1777304565 | 32.78° C | 31% | 956.9 hPa | - | - | - | - |
| 1777303664 | 32.78° C | 31% | 957 hPa | - | - | - | - |
| 1777302764 | 32.78° C | 31% | 957 hPa | - | - | - | - |
| 1777301865 | 32.22° C | 32% | 957.2 hPa | - | - | - | - |
| 1777300965 | 31.67° C | 32% | 957.3 hPa | - | - | - | - |
| 1777300062 | 31.67° C | 31% | 957.5 hPa | - | - | - | - |
| 1777299160 | 31.67° C | 31% | 957.4 hPa | - | - | - | - |
* Rain since midnight (hover to see other rain measurements)
** Current wind speed in m/s (hover to see current wind gust speed)